Time;durP1;ratioP1;P1;durP2;ratioP2;P2;SDS_P1;SDS_P2;PMS_P1;PMS_P2;Temp;Humidity;BMP_temperature;BMP_pressure;BME280_temperature;BME280_humidity;BME280_pressure;Samples;Min_cycle;Max_cycle;Signal;HPM_P1;HPM_P2
2021/12/23 00:02:02;;;;;;;21.57;12.63;;;;;-1.00;101121.00;;;;5005967;28;20245;-73
2021/12/23 00:04:49;;;;;;;22.03;13.30;;;;;-1.00;101113.00;;;;4991209;28;20786;-74
2021/12/23 00:07:36;;;;;;;25.70;13.90;;;;;-1.00;101104.00;;;;5010910;28;20242;-74
2021/12/23 00:10:22;;;;;;;25.53;13.23;;;;;-1.00;101095.00;;;;5001207;28;20310;-72
2021/12/23 00:13:09;;;;;;;19.40;12.10;;;;;-0.90;101099.00;;;;4990037;28;20226;-74
2021/12/23 00:16:06;;;;;;;24.17;13.00;;;;;-1.00;101056.00;;;;4981600;28;20790;-73
2021/12/23 00:18:58;;;;;;;22.40;12.63;;;;;-1.00;101106.00;;;;5009914;28;20225;-73
2021/12/23 00:24:49;;;;;;;21.30;12.67;;;;;-1.00;101083.00;;;;4992833;28;20358;-73
2021/12/23 00:27:35;;;;;;;24.03;13.23;;;;;-1.00;101085.00;;;;4989511;28;20270;-72
2021/12/23 00:30:21;;;;;;;23.80;11.87;;;;;-1.00;101085.00;;;;5009504;28;20437;-72
2021/12/23 00:33:09;;;;;;;25.73;13.87;;;;;-1.00;101087.00;;;;5015537;28;20247;-72
2021/12/23 00:35:56;;;;;;;23.50;12.73;;;;;-1.00;101067.00;;;;5008910;28;20225;-73
2021/12/23 00:38:47;;;;;;;22.00;11.33;;;;;-0.90;101058.00;;;;5016459;28;20641;-73
2021/12/23 00:41:33;;;;;;;23.03;12.23;;;;;-0.80;101042.00;;;;4989876;28;20234;-72
2021/12/23 00:44:19;;;;;;;23.60;11.37;;;;;-0.90;101032.00;;;;4990668;28;20856;-73
2021/12/23 00:47:07;;;;;;;24.20;11.97;;;;;-0.80;101017.00;;;;5004182;28;20297;-74
2021/12/23 00:49:55;;;;;;;21.50;12.00;;;;;-0.80;101045.00;;;;5011564;28;20234;-72
2021/12/23 00:52:42;;;;;;;19.87;11.47;;;;;-0.80;101042.00;;;;5020646;28;20233;-74
2021/12/23 00:55:28;;;;;;;24.00;12.83;;;;;-0.80;101038.00;;;;4989258;28;20238;-73
2021/12/23 00:58:14;;;;;;;23.83;12.07;;;;;-0.80;101029.00;;;;5007439;28;20226;-73
2021/12/23 01:01:01;;;;;;;22.93;12.60;;;;;-0.80;100984.00;;;;5009968;28;20704;-73
2021/12/23 01:03:47;;;;;;;18.83;11.13;;;;;-0.80;101002.00;;;;4978396;28;20369;-73
2021/12/23 01:06:35;;;;;;;18.10;11.17;;;;;-0.70;100989.00;;;;5001570;28;20604;-73
2021/12/23 01:09:23;;;;;;;20.10;10.83;;;;;-0.80;101000.00;;;;5004942;28;20483;-73
2021/12/23 01:12:12;;;;;;;17.70;11.00;;;;;-0.80;101001.00;;;;5006045;28;20237;-73
2021/12/23 01:15:10;;;;;;;20.53;12.17;;;;;-0.80;100996.00;;;;5001532;28;20234;-72
2021/12/23 01:17:59;;;;;;;20.83;10.63;;;;;-0.70;100979.00;;;;5001504;28;20326;-73
2021/12/23 01:20:52;;;;;;;20.47;10.97;;;;;-0.80;100972.00;;;;5005236;28;20226;-70
2021/12/23 01:23:42;;;;;;;22.63;10.97;;;;;-0.70;100976.00;;;;5008388;28;20313;-72
2021/12/23 01:26:28;;;;;;;25.37;11.97;;;;;-0.70;100962.00;;;;5007327;28;20245;-73
2021/12/23 01:29:14;;;;;;;25.97;12.33;;;;;-0.70;100961.00;;;;5006684;28;20238;-72
2021/12/23 01:32:04;;;;;;;25.30;12.10;;;;;-0.80;100934.00;;;;5000811;28;20320;-72
2021/12/23 01:34:50;;;;;;;23.33;12.67;;;;;-0.80;100946.00;;;;4999234;28;20361;-72
2021/12/23 01:37:37;;;;;;;18.83;10.90;;;;;-0.70;100935.00;;;;4993559;28;20370;-73
2021/12/23 01:40:25;;;;;;;21.03;11.70;;;;;-0.70;100922.00;;;;5004186;28;20226;-74
2021/12/23 01:43:11;;;;;;;21.97;11.57;;;;;-0.70;100939.00;;;;4976263;28;20606;-73
2021/12/23 01:45:57;;;;;;;23.73;12.80;;;;;-0.70;100918.00;;;;4984322;28;20229;-74
2021/12/23 01:48:44;;;;;;;20.63;11.83;;;;;-0.70;100927.00;;;;4984134;28;20239;-73
2021/12/23 01:51:31;;;;;;;20.87;11.33;;;;;-0.70;100932.00;;;;4977281;28;20721;-75
2021/12/23 01:54:17;;;;;;;19.73;10.63;;;;;-0.60;100942.00;;;;4976648;28;21020;-72
2021/12/23 01:57:05;;;;;;;20.03;11.40;;;;;-0.70;100940.00;;;;4981748;28;20246;-73
2021/12/23 01:59:52;;;;;;;17.20;10.47;;;;;-0.80;100956.00;;;;4974397;28;20227;-74
2021/12/23 02:02:38;;;;;;;19.70;11.40;;;;;-0.80;100966.00;;;;4979687;28;20242;-72
2021/12/23 02:05:26;;;;;;;21.77;10.90;;;;;-0.70;100974.00;;;;4981980;28;20231;-75
2021/12/23 02:08:12;;;;;;;17.87;10.77;;;;;-0.80;100967.00;;;;5000557;28;20769;-72
2021/12/23 02:11:00;;;;;;;21.10;11.20;;;;;-0.70;100928.00;;;;5000984;28;20334;-74
2021/12/23 02:13:48;;;;;;;17.97;10.60;;;;;-0.70;100927.00;;;;5009096;28;20225;-73
2021/12/23 02:16:35;;;;;;;20.50;10.93;;;;;-0.70;100926.00;;;;5020458;28;20329;-73
2021/12/23 02:19:22;;;;;;;19.00;10.70;;;;;-0.70;100907.00;;;;5016060;28;20599;-73
2021/12/23 02:22:09;;;;;;;21.50;11.70;;;;;-0.70;100914.00;;;;5004580;28;20267;-74
2021/12/23 02:24:56;;;;;;;20.17;10.37;;;;;-0.70;100911.00;;;;5011462;28;20710;-72
2021/12/23 02:27:43;;;;;;;21.43;11.03;;;;;-0.60;100888.00;;;;5013269;28;20739;-72
2021/12/23 02:30:29;;;;;;;20.87;11.30;;;;;-0.60;100888.00;;;;4982088;28;20285;-73
2021/12/23 02:33:16;;;;;;;24.73;12.73;;;;;-0.60;100910.00;;;;5016258;28;20289;-73
2021/12/23 02:36:03;;;;;;;21.77;11.20;;;;;-0.60;100916.00;;;;5000067;28;20230;-72
2021/12/23 02:38:51;;;;;;;20.73;10.67;;;;;-0.60;100931.00;;;;4988409;28;20717;-71
2021/12/23 02:41:41;;;;;;;17.73;10.67;;;;;-0.60;100927.00;;;;5024417;28;20252;-71
2021/12/23 02:44:28;;;;;;;18.00;11.10;;;;;-0.60;100892.00;;;;5014644;28;20612;-73
2021/12/23 02:47:17;;;;;;;24.07;10.50;;;;;-0.60;100866.00;;;;5022436;28;20708;-73
2021/12/23 02:50:05;;;;;;;17.70;10.20;;;;;-0.60;100830.00;;;;5007545;28;20286;-73
2021/12/23 02:52:51;;;;;;;18.93;10.40;;;;;-0.60;100869.00;;;;4986498;28;20313;-72
2021/12/23 02:55:39;;;;;;;19.60;10.67;;;;;-0.60;100867.00;;;;5018301;28;20333;-75
2021/12/23 02:58:26;;;;;;;19.80;10.73;;;;;-0.60;100875.00;;;;5008968;28;20314;-73
2021/12/23 03:01:15;;;;;;;19.23;10.17;;;;;-0.60;100859.00;;;;5008375;28;20229;-74
2021/12/23 03:04:04;;;;;;;23.57;11.23;;;;;-0.50;100845.00;;;;5003357;28;20987;-71
2021/12/23 03:06:50;;;;;;;20.33;10.43;;;;;-0.50;100779.00;;;;5008234;28;20242;-74
2021/12/23 03:09:37;;;;;;;20.77;11.07;;;;;-0.60;100836.00;;;;5008074;28;20671;-73
2021/12/23 03:12:24;;;;;;;20.20;10.70;;;;;-0.60;100844.00;;;;5001133;28;20282;-75
2021/12/23 03:15:11;;;;;;;21.40;12.30;;;;;-0.60;100839.00;;;;5008379;28;20728;-72
2021/12/23 03:17:57;;;;;;;19.47;10.57;;;;;-0.70;100845.00;;;;4984147;28;20299;-71
2021/12/23 03:20:44;;;;;;;20.67;11.00;;;;;-0.60;100839.00;;;;4994575;28;20226;-72
2021/12/23 03:23:31;;;;;;;22.57;11.30;;;;;-0.60;100852.00;;;;4987973;28;20234;-74
2021/12/23 03:26:17;;;;;;;18.90;10.87;;;;;-0.60;100857.00;;;;5018176;28;20272;-73
2021/12/23 03:29:07;;;;;;;18.80;11.30;;;;;-0.60;100865.00;;;;5007295;28;20311;-73
2021/12/23 03:31:55;;;;;;;17.80;10.80;;;;;-0.60;100851.00;;;;4987136;28;20738;-73
2021/12/23 03:34:41;;;;;;;17.37;10.23;;;;;-0.60;100855.00;;;;5017837;28;20704;-74
2021/12/23 03:37:27;;;;;;;19.13;11.20;;;;;-0.50;100833.00;;;;5015920;28;20238;-73
2021/12/23 03:40:14;;;;;;;21.10;10.67;;;;;-0.60;100835.00;;;;5002888;28;20273;-73
2021/12/23 03:43:00;;;;;;;17.70;11.30;;;;;-0.60;100848.00;;;;5011317;28;20312;-73
2021/12/23 03:45:49;;;;;;;17.27;11.33;;;;;-0.60;100838.00;;;;4983107;28;20863;-73
2021/12/23 03:48:35;;;;;;;16.80;9.90;;;;;-0.60;100836.00;;;;5009871;28;20296;-73
2021/12/23 03:51:22;;;;;;;18.43;10.77;;;;;-0.60;100839.00;;;;5007194;28;20298;-73
2021/12/23 03:54:08;;;;;;;18.17;10.07;;;;;-0.70;100831.00;;;;4987194;28;20589;-71
2021/12/23 03:56:54;;;;;;;22.10;11.23;;;;;-0.70;100831.00;;;;4987995;28;20215;-73
2021/12/23 03:59:41;;;;;;;20.77;10.37;;;;;-0.80;100829.00;;;;5021654;28;20238;-72
2021/12/23 04:02:29;;;;;;;21.13;11.57;;;;;-0.80;100847.00;;;;5013804;28;20369;-73
2021/12/23 04:05:16;;;;;;;22.10;11.17;;;;;-0.80;100837.00;;;;5009534;28;20586;-73
2021/12/23 04:08:03;;;;;;;15.23;9.20;;;;;-0.90;100813.00;;;;5014085;28;20712;-73
2021/12/23 04:10:49;;;;;;;17.20;9.73;;;;;-0.90;100806.00;;;;5000728;28;20251;-73
2021/12/23 04:13:35;;;;;;;19.97;10.43;;;;;-0.90;100799.00;;;;4987311;28;20278;-73
2021/12/23 04:16:22;;;;;;;19.27;10.47;;;;;-1.00;100797.00;;;;4986013;28;20242;-73
2021/12/23 04:19:11;;;;;;;21.47;10.77;;;;;-0.90;100797.00;;;;4991122;28;20394;-73
2021/12/23 04:21:58;;;;;;;19.00;10.80;;;;;-1.00;100797.00;;;;4995100;28;20231;-72
2021/12/23 04:24:44;;;;;;;23.20;10.70;;;;;-1.00;100794.00;;;;4976537;28;20219;-72
2021/12/23 04:27:30;;;;;;;17.37;9.90;;;;;-1.00;100782.00;;;;5000283;28;20226;-72
2021/12/23 04:30:18;;;;;;;21.23;10.43;;;;;-1.00;100784.00;;;;4992105;28;20234;-73
2021/12/23 04:33:04;;;;;;;19.23;10.30;;;;;-1.00;100775.00;;;;4990608;28;20230;-72
2021/12/23 04:35:52;;;;;;;19.57;10.43;;;;;-1.00;100762.00;;;;4980910;28;20221;-73
2021/12/23 04:38:40;;;;;;;20.97;10.57;;;;;-1.00;100750.00;;;;5011465;28;20819;-73
2021/12/23 04:41:27;;;;;;;21.17;10.73;;;;;-1.10;100739.00;;;;5012594;28;20233;-76
2021/12/23 04:44:13;;;;;;;16.33;10.03;;;;;-1.10;100737.00;;;;5011118;28;20229;-71
2021/12/23 04:46:59;;;;;;;21.60;10.77;;;;;-1.20;100742.00;;;;5014909;28;20280;-72
2021/12/23 04:49:46;;;;;;;17.77;9.83;;;;;-1.30;100730.00;;;;5006938;28;20228;-75
2021/12/23 04:52:33;;;;;;;19.27;9.83;;;;;-1.30;100748.00;;;;4989868;28;20294;-73
2021/12/23 04:55:20;;;;;;;22.47;10.73;;;;;-1.20;100719.00;;;;5007949;28;20228;-72
2021/12/23 04:58:06;;;;;;;22.73;11.03;;;;;-1.20;100727.00;;;;5009309;28;20354;-72
2021/12/23 05:00:52;;;;;;;17.53;9.93;;;;;-1.20;100714.00;;;;5006600;28;20214;-73
2021/12/23 05:03:39;;;;;;;17.67;9.90;;;;;-1.30;100726.00;;;;5012428;28;20233;-72
2021/12/23 05:06:27;;;;;;;18.87;10.33;;;;;-1.40;100696.00;;;;5006247;28;20229;-71
2021/12/23 05:09:14;;;;;;;19.03;10.33;;;;;-1.40;100706.00;;;;5013379;28;20228;-72
2021/12/23 05:12:00;;;;;;;16.77;9.97;;;;;-1.30;100694.00;;;;5007243;28;20317;-73
2021/12/23 05:14:46;;;;;;;20.80;10.67;;;;;-1.30;100682.00;;;;5008850;28;20226;-73
2021/12/23 05:17:32;;;;;;;19.53;10.87;;;;;-1.30;100657.00;;;;5012673;28;20684;-73
2021/12/23 05:20:20;;;;;;;21.47;10.50;;;;;-1.30;100645.00;;;;5007676;28;20230;-73
2021/12/23 05:23:07;;;;;;;18.03;10.70;;;;;-1.30;100646.00;;;;4996891;28;20259;-74
2021/12/23 05:25:55;;;;;;;19.97;10.67;;;;;-1.30;100646.00;;;;4992289;28;20222;-72
2021/12/23 05:28:41;;;;;;;19.67;10.17;;;;;-1.20;100648.00;;;;5016632;28;20241;-71
2021/12/23 05:31:30;;;;;;;25.20;11.10;;;;;-1.20;100645.00;;;;4990250;28;20392;-73
2021/12/23 05:34:16;;;;;;;19.67;10.17;;;;;-1.20;100639.00;;;;5002883;28;20229;-72
2021/12/23 05:37:02;;;;;;;18.63;10.43;;;;;-1.20;100639.00;;;;4986607;28;20234;-75
2021/12/23 05:39:49;;;;;;;20.03;11.13;;;;;-1.20;100636.00;;;;4985510;28;20750;-73
2021/12/23 05:42:36;;;;;;;21.07;11.57;;;;;-1.30;100637.00;;;;4995410;28;20238;-70
2021/12/23 05:45:23;;;;;;;19.47;11.33;;;;;-1.20;100641.00;;;;5014792;28;20229;-74
2021/12/23 05:48:09;;;;;;;19.87;10.93;;;;;-1.20;100643.00;;;;5013199;28;20228;-72
2021/12/23 05:50:55;;;;;;;18.30;10.23;;;;;-1.20;100650.00;;;;4989527;28;20254;-73
2021/12/23 05:53:42;;;;;;;20.60;11.27;;;;;-1.20;100650.00;;;;4998345;28;20230;-70
2021/12/23 05:56:29;;;;;;;20.70;10.73;;;;;-1.20;100650.00;;;;4990530;28;20231;-73
2021/12/23 05:59:16;;;;;;;20.60;11.70;;;;;-1.20;100655.00;;;;5009115;28;20238;-73
2021/12/23 06:02:05;;;;;;;18.90;10.50;;;;;-1.20;100662.00;;;;4988930;28;20266;-73
2021/12/23 06:04:52;;;;;;;21.63;10.70;;;;;-1.20;100668.00;;;;5000002;28;20333;-72
2021/12/23 06:07:40;;;;;;;20.90;11.20;;;;;-1.20;100667.00;;;;5010282;28;20238;-72
2021/12/23 06:10:26;;;;;;;19.87;10.43;;;;;-1.20;100675.00;;;;4996402;28;20282;-72
2021/12/23 06:13:12;;;;;;;23.13;11.53;;;;;-1.10;100657.00;;;;5009662;28;20800;-73
2021/12/23 06:16:00;;;;;;;20.43;11.50;;;;;-1.00;100621.00;;;;5008874;28;20229;-72
2021/12/23 06:18:48;;;;;;;17.70;10.27;;;;;-1.00;100616.00;;;;5015306;28;20349;-74
2021/12/23 06:21:34;;;;;;;19.30;10.20;;;;;-1.00;100618.00;;;;4998545;28;20230;-72
2021/12/23 06:24:21;;;;;;;19.50;10.67;;;;;-1.00;100628.00;;;;4989760;28;20628;-72
2021/12/23 06:27:07;;;;;;;20.77;11.40;;;;;-0.90;100637.00;;;;5009683;28;20250;-73
2021/12/23 06:30:00;;;;;;;19.97;10.87;;;;;-0.90;100614.00;;;;5008704;28;20376;-74
2021/12/23 06:32:50;;;;;;;22.20;11.23;;;;;-0.90;100609.00;;;;5011675;28;20353;-73
2021/12/23 06:35:36;;;;;;;20.33;10.53;;;;;-0.90;100600.00;;;;4999431;28;20234;-73
2021/12/23 06:38:23;;;;;;;25.03;12.07;;;;;-0.90;100613.00;;;;5017899;28;20233;-74
2021/12/23 06:41:09;;;;;;;21.40;12.13;;;;;-0.90;100604.00;;;;5004812;28;20389;-72
2021/12/23 06:43:55;;;;;;;22.43;11.07;;;;;-0.80;100607.00;;;;4980736;28;20598;-71
2021/12/23 06:46:42;;;;;;;19.23;10.13;;;;;-0.80;100605.00;;;;5000335;28;20760;-73
2021/12/23 06:49:31;;;;;;;24.40;11.47;;;;;-0.80;100632.00;;;;5011988;28;20265;-73
2021/12/23 06:52:18;;;;;;;22.67;12.37;;;;;-0.80;100630.00;;;;4995269;28;20748;-75
2021/12/23 06:55:05;;;;;;;25.27;12.53;;;;;-0.80;100634.00;;;;5014204;28;20225;-73
2021/12/23 06:57:56;;;;;;;25.97;12.20;;;;;-0.80;100620.00;;;;5009206;28;20685;-75
2021/12/23 07:00:42;;;;;;;23.63;11.00;;;;;-0.90;100617.00;;;;5021726;28;20230;-75
2021/12/23 07:03:44;;;;;;;22.93;11.63;;;;;-0.90;100613.00;;;;5013631;28;20242;-74
2021/12/23 07:06:35;;;;;;;19.17;10.70;;;;;-0.90;100615.00;;;;4994696;28;20255;-74
2021/12/23 07:09:21;;;;;;;20.93;11.50;;;;;-0.90;100609.00;;;;5004780;28;20241;-74
2021/12/23 07:12:10;;;;;;;21.67;11.23;;;;;-0.90;100612.00;;;;5015932;28;20305;-76
2021/12/23 07:14:57;;;;;;;23.07;11.27;;;;;-1.00;100628.00;;;;5008347;28;20255;-74
2021/12/23 07:17:43;;;;;;;21.70;11.77;;;;;-1.00;100634.00;;;;5006574;28;20259;-74
2021/12/23 07:20:30;;;;;;;33.67;16.00;;;;;-1.00;100622.00;;;;5005201;28;20224;-74
2021/12/23 07:23:18;;;;;;;25.00;12.43;;;;;-1.00;100621.00;;;;5030952;28;20290;-77
2021/12/23 07:26:04;;;;;;;23.03;12.17;;;;;-1.00;100614.00;;;;5040604;28;20233;-76
2021/12/23 07:28:51;;;;;;;24.87;12.53;;;;;-0.90;100618.00;;;;5026931;28;20250;-75
2021/12/23 07:31:37;;;;;;;23.53;11.70;;;;;-0.90;100633.00;;;;5033874;28;20284;-74
2021/12/23 07:34:23;;;;;;;23.57;11.43;;;;;-1.00;100632.00;;;;5009070;28;20237;-75
2021/12/23 07:37:11;;;;;;;24.23;12.27;;;;;-1.00;100622.00;;;;5012400;28;20252;-76
2021/12/23 07:39:58;;;;;;;27.33;12.07;;;;;-0.90;100616.00;;;;5000003;28;20226;-75
2021/12/23 07:42:55;;;;;;;24.30;12.07;;;;;-0.90;100578.00;;;;5002766;28;20695;-75
2021/12/23 07:45:41;;;;;;;23.50;12.27;;;;;-0.90;100609.00;;;;5016023;28;20236;-75
2021/12/23 07:48:28;;;;;;;26.40;12.97;;;;;-0.90;100608.00;;;;5016019;28;20245;-74
2021/12/23 07:51:14;;;;;;;27.43;13.80;;;;;-0.80;100596.00;;;;5013349;28;20233;-74
2021/12/23 07:54:00;;;;;;;23.20;12.20;;;;;-0.80;100602.00;;;;4987100;28;20947;-74
2021/12/23 07:56:48;;;;;;;21.07;11.80;;;;;-0.80;100614.00;;;;5001818;28;20228;-74
2021/12/23 07:59:34;;;;;;;27.33;13.50;;;;;-0.70;100628.00;;;;5022823;28;20229;-71
2021/12/23 08:02:21;;;;;;;30.77;12.50;;;;;-0.70;100630.00;;;;4999518;28;20742;-73
2021/12/23 08:05:08;;;;;;;28.60;14.70;;;;;-0.70;100626.00;;;;4996471;28;20233;-72
2021/12/23 08:07:55;;;;;;;24.23;12.77;;;;;-0.70;100623.00;;;;5007171;28;20232;-72
2021/12/23 08:10:41;;;;;;;24.83;13.03;;;;;-0.70;100604.00;;;;5007355;28;20233;-72
2021/12/23 08:13:29;;;;;;;29.77;13.33;;;;;-0.70;100634.00;;;;4997360;28;20298;-69
2021/12/23 08:16:15;;;;;;;24.83;13.57;;;;;-0.60;100621.00;;;;5002489;28;20618;-72
2021/12/23 08:19:01;;;;;;;25.67;13.40;;;;;-0.60;100622.00;;;;5013312;28;20244;-73
2021/12/23 08:21:47;;;;;;;25.47;13.90;;;;;-0.50;100621.00;;;;4988129;28;20235;-74
2021/12/23 08:24:33;;;;;;;30.07;14.97;;;;;-0.60;100588.00;;;;4987948;28;20233;-72
2021/12/23 08:27:21;;;;;;;30.33;16.33;;;;;-0.50;100612.00;;;;5018556;28;20233;-69
2021/12/23 08:30:12;;;;;;;30.13;14.97;;;;;-0.40;100608.00;;;;4999586;28;20321;-72
2021/12/23 08:32:58;;;;;;;31.70;15.70;;;;;-0.40;100618.00;;;;4990524;28;20628;-72
2021/12/23 08:35:44;;;;;;;31.87;15.47;;;;;-0.40;100611.00;;;;4988726;28;20705;-72
2021/12/23 08:38:30;;;;;;;33.80;15.03;;;;;-0.40;100613.00;;;;4992501;28;20787;-72
2021/12/23 08:41:17;;;;;;;31.70;15.60;;;;;-0.40;100610.00;;;;4990749;28;20601;-72
2021/12/23 08:44:04;;;;;;;32.40;15.27;;;;;-0.30;100612.00;;;;5002511;28;20225;-73
2021/12/23 08:46:52;;;;;;;27.60;14.43;;;;;-0.30;100614.00;;;;4993076;28;20441;-73
2021/12/23 08:49:39;;;;;;;32.50;15.80;;;;;-0.30;100608.00;;;;4997187;28;20719;-73
2021/12/23 08:52:25;;;;;;;31.47;14.30;;;;;-0.30;100605.00;;;;5009950;28;20236;-73
2021/12/23 08:55:13;;;;;;;27.90;14.77;;;;;-0.20;100614.00;;;;5015725;28;20998;-74
2021/12/23 08:58:03;;;;;;;27.40;15.00;;;;;-0.20;100605.00;;;;4995830;28;20335;-73
2021/12/23 09:00:50;;;;;;;25.57;13.70;;;;;-0.20;100601.00;;;;5009698;28;20705;-71
2021/12/23 09:03:38;;;;;;;28.10;13.97;;;;;-0.10;100593.00;;;;4989538;28;20931;-73
2021/12/23 09:06:24;;;;;;;26.87;14.30;;;;;0.00;100583.00;;;;5014592;28;20229;-71
2021/12/23 09:09:11;;;;;;;29.97;14.47;;;;;0.10;100578.00;;;;5007962;28;20281;-73
2021/12/23 09:11:58;;;;;;;30.07;14.50;;;;;0.10;100572.00;;;;4984372;28;20337;-71
2021/12/23 09:14:45;;;;;;;28.03;14.63;;;;;0.10;100576.00;;;;4993764;28;20270;-72
2021/12/23 09:17:31;;;;;;;30.70;14.83;;;;;0.10;100568.00;;;;4986775;28;20363;-73
2021/12/23 09:20:21;;;;;;;31.13;14.70;;;;;0.10;100562.00;;;;5005303;28;20253;-75
2021/12/23 09:23:09;;;;;;;28.10;14.47;;;;;0.10;100551.00;;;;4986274;28;20629;-74
2021/12/23 09:25:55;;;;;;;26.67;14.27;;;;;0.10;100545.00;;;;4990461;28;20768;-71
2021/12/23 09:28:55;;;;;;;27.50;14.33;;;;;0.10;100542.00;;;;5014070;28;20349;-72
2021/12/23 09:34:45;;;;;;;30.50;15.53;;;;;0.20;100546.00;;;;4993736;28;20226;-74
2021/12/23 09:37:32;;;;;;;28.27;15.23;;;;;0.30;100538.00;;;;5004418;28;20241;-72
2021/12/23 09:40:20;;;;;;;28.83;14.27;;;;;0.40;100533.00;;;;4984042;28;20307;-73
2021/12/23 09:43:08;;;;;;;31.87;14.73;;;;;0.50;100526.00;;;;4979636;28;23358;-73
2021/12/23 09:45:55;;;;;;;28.57;13.53;;;;;0.50;100515.00;;;;4985598;28;20247;-73
2021/12/23 09:48:43;;;;;;;29.27;13.37;;;;;0.50;100513.00;;;;5010212;28;20320;-73
2021/12/23 09:51:32;;;;;;;27.10;14.27;;;;;0.50;100515.00;;;;5001183;28;20688;-73
2021/12/23 09:54:20;;;;;;;33.20;15.33;;;;;0.80;100506.00;;;;4998401;28;20656;-73
2021/12/23 09:57:06;;;;;;;32.67;15.53;;;;;0.70;100510.00;;;;4996025;28;20792;-73
2021/12/23 09:59:56;;;;;;;32.50;16.50;;;;;0.80;100472.00;;;;4995760;28;20222;-73
2021/12/23 10:02:43;;;;;;;39.13;16.67;;;;;0.70;100491.00;;;;4975648;28;20222;-74
2021/12/23 10:05:35;;;;;;;29.43;15.87;;;;;0.80;100488.00;;;;4999420;28;20317;-72
2021/12/23 10:08:22;;;;;;;34.37;16.67;;;;;0.90;100482.00;;;;4999190;28;20258;-73
2021/12/23 10:11:17;;;;;;;37.30;16.70;;;;;1.00;100473.00;;;;5005963;28;20238;-72
2021/12/23 10:33:26;;;;;;;37.07;16.43;;;;;1.20;100458.00;;;;4997621;28;20317;-73
2021/12/23 10:39:26;;;;;;;35.87;16.77;;;;;1.20;100442.00;;;;5009218;28;20268;-74
2021/12/23 10:42:17;;;;;;;33.97;16.17;;;;;1.20;100434.00;;;;5005448;28;20234;-72
2021/12/23 10:45:08;;;;;;;33.90;16.40;;;;;1.20;100430.00;;;;5010553;28;20230;-74
2021/12/23 10:47:58;;;;;;;39.83;17.63;;;;;1.30;100415.00;;;;5005234;28;20245;-74
2021/12/23 10:50:48;;;;;;;37.63;16.90;;;;;1.40;100395.00;;;;5001543;28;20251;-71
2021/12/23 10:59:48;;;;;;;38.07;17.80;;;;;1.50;100398.00;;;;4998330;28;20272;-72
2021/12/23 11:02:36;;;;;;;33.30;17.67;;;;;1.50;100392.00;;;;5000847;28;20244;-73
2021/12/23 11:05:27;;;;;;;37.57;17.03;;;;;1.60;100385.00;;;;5006857;28;20222;-73
2021/12/23 11:08:22;;;;;;;40.20;18.13;;;;;1.60;100381.00;;;;4992826;28;20234;-73
2021/12/23 11:11:33;;;;;;;36.30;16.97;;;;;1.60;100385.00;;;;4988501;28;20769;-73
2021/12/23 11:30:40;;;;;;;40.43;18.60;;;;;1.80;100348.00;;;;4987895;28;20885;-73
2021/12/23 11:37:04;;;;;;;39.47;18.33;;;;;1.90;100331.00;;;;4996555;28;20393;-73
2021/12/23 11:40:09;;;;;;;37.37;18.00;;;;;2.00;100340.00;;;;4992414;28;20226;-73
2021/12/23 11:43:25;;;;;;;37.83;17.10;;;;;2.00;100334.00;;;;4977900;28;20769;-71
2021/12/23 11:46:09;;;;;;;36.03;16.13;;;;;2.00;100321.00;;;;4986109;28;20234;-74
2021/12/23 11:49:00;;;;;;;33.23;17.27;;;;;2.00;100315.00;;;;4982192;28;20227;-71
2021/12/23 11:51:53;;;;;;;33.10;17.03;;;;;2.00;100310.00;;;;4988115;28;20254;-72
2021/12/23 11:54:42;;;;;;;30.60;16.43;;;;;2.20;100305.00;;;;5014744;28;20300;-71
2021/12/23 11:57:36;;;;;;;42.90;16.97;;;;;2.10;100286.00;;;;5017295;28;20249;-72
2021/12/23 12:00:32;;;;;;;35.83;17.07;;;;;2.00;100284.00;;;;5009350;28;20310;-72
2021/12/23 12:03:19;;;;;;;35.87;16.43;;;;;2.10;100281.00;;;;5007253;28;20271;-72
2021/12/23 12:06:18;;;;;;;35.20;16.90;;;;;2.10;100271.00;;;;4978550;28;20298;-74
2021/12/23 12:09:12;;;;;;;35.77;16.73;;;;;2.00;100268.00;;;;4985169;28;20323;-74
2021/12/23 12:12:09;;;;;;;31.80;15.87;;;;;2.10;100261.00;;;;4979277;28;20307;-73
2021/12/23 12:14:56;;;;;;;33.93;15.87;;;;;2.10;100246.00;;;;4981992;28;20238;-74
2021/12/23 12:17:43;;;;;;;35.50;14.63;;;;;2.30;100235.00;;;;5003998;28;20225;-74
2021/12/23 12:20:36;;;;;;;31.90;15.83;;;;;2.30;100246.00;;;;5000095;28;20254;-74
2021/12/23 12:23:31;;;;;;;34.13;15.60;;;;;2.30;100247.00;;;;4982151;28;20314;-71
2021/12/23 12:26:24;;;;;;;31.33;14.57;;;;;2.40;100220.00;;;;4985147;28;20234;-74
2021/12/23 12:29:10;;;;;;;31.90;14.17;;;;;2.60;100230.00;;;;4986133;28;20612;-73
2021/12/23 12:31:57;;;;;;;31.30;14.93;;;;;2.40;100232.00;;;;4985096;28;20240;-74
2021/12/23 12:34:53;;;;;;;33.53;15.90;;;;;2.40;100222.00;;;;4978415;28;20876;-74
2021/12/23 12:37:44;;;;;;;31.10;14.63;;;;;2.60;100219.00;;;;5013010;28;20221;-73
2021/12/23 12:40:59;;;;;;;33.40;15.50;;;;;2.60;100211.00;;;;4983429;28;20848;-74
2021/12/23 12:43:58;;;;;;;26.80;12.57;;;;;2.60;100197.00;;;;4998170;28;20269;-74
2021/12/23 12:46:55;;;;;;;29.10;13.87;;;;;2.60;100198.00;;;;4987256;28;20309;-74
2021/12/23 12:49:44;;;;;;;41.03;15.93;;;;;2.80;100189.00;;;;4991299;28;20223;-74
2021/12/23 12:52:33;;;;;;;29.37;14.23;;;;;2.80;100193.00;;;;4995735;28;20238;-74
2021/12/23 12:55:23;;;;;;;28.93;14.33;;;;;2.80;100189.00;;;;4978290;28;20703;-73
2021/12/23 12:58:12;;;;;;;30.97;15.10;;;;;2.90;100200.00;;;;4982065;28;20238;-73
2021/12/23 13:01:02;;;;;;;38.03;13.60;;;;;2.90;100174.00;;;;4978452;28;20230;-72
2021/12/23 13:03:53;;;;;;;33.23;14.50;;;;;2.90;100164.00;;;;4990751;28;20225;-75
2021/12/23 13:06:41;;;;;;;29.67;15.10;;;;;2.90;100160.00;;;;4986338;28;20388;-73
2021/12/23 13:09:31;;;;;;;32.70;14.47;;;;;3.00;100159.00;;;;5008979;28;20373;-74
2021/12/23 13:12:29;;;;;;;29.87;14.57;;;;;3.00;100155.00;;;;4998853;28;20833;-74
2021/12/23 13:15:20;;;;;;;28.57;14.13;;;;;2.70;100142.00;;;;5005076;28;20616;-74
2021/12/23 13:18:09;;;;;;;32.50;14.80;;;;;2.90;100142.00;;;;4986322;28;20246;-75
2021/12/23 13:20:57;;;;;;;35.00;14.77;;;;;3.10;100145.00;;;;4992737;28;20269;-73
2021/12/23 13:23:46;;;;;;;30.23;14.53;;;;;3.00;100136.00;;;;4981135;28;20975;-75
2021/12/23 13:26:32;;;;;;;35.10;15.40;;;;;2.90;100134.00;;;;4977032;28;20271;-72
2021/12/23 13:29:21;;;;;;;31.27;13.77;;;;;2.90;100113.00;;;;4982137;28;20339;-74
2021/12/23 13:32:09;;;;;;;32.00;13.83;;;;;3.00;100118.00;;;;4992471;28;20930;-73
2021/12/23 13:34:55;;;;;;;30.47;14.13;;;;;2.90;100116.00;;;;4986293;28;20297;-74
2021/12/23 13:37:43;;;;;;;31.73;14.43;;;;;2.90;100107.00;;;;4986916;28;20322;-73
2021/12/23 13:40:32;;;;;;;36.00;14.13;;;;;3.00;100092.00;;;;4988827;28;20776;-74
2021/12/23 13:43:29;;;;;;;37.30;14.77;;;;;3.00;100098.00;;;;5013408;28;20237;-74
2021/12/23 13:46:15;;;;;;;28.20;14.03;;;;;3.10;100093.00;;;;5012702;28;20350;-75
2021/12/23 13:49:06;;;;;;;31.53;14.70;;;;;3.20;100080.00;;;;4987065;28;20277;-74
2021/12/23 13:51:53;;;;;;;31.33;13.67;;;;;3.20;100074.00;;;;4992404;28;20254;-74
2021/12/23 13:54:41;;;;;;;31.43;13.93;;;;;3.40;100076.00;;;;4986424;28;20226;-74
2021/12/23 13:57:31;;;;;;;34.47;15.10;;;;;3.40;100079.00;;;;5003636;28;20619;-74
2021/12/23 14:00:20;;;;;;;31.70;14.10;;;;;3.30;100067.00;;;;4989544;28;20678;-75
2021/12/23 14:03:08;;;;;;;34.93;16.03;;;;;3.60;100057.00;;;;4980888;28;20820;-72
2021/12/23 14:05:56;;;;;;;27.67;14.00;;;;;3.60;100050.00;;;;4985967;28;20231;-74
2021/12/23 14:08:43;;;;;;;28.50;13.37;;;;;3.60;100047.00;;;;5014851;28;20229;-75
2021/12/23 14:11:29;;;;;;;31.37;14.23;;;;;3.60;100046.00;;;;5020810;28;20280;-78
2021/12/23 14:14:19;;;;;;;30.90;14.63;;;;;3.80;100048.00;;;;5023873;28;20771;-75
2021/12/23 14:17:05;;;;;;;30.80;14.20;;;;;3.90;100058.00;;;;4989186;28;20297;-75
2021/12/23 14:23:11;;;;;;;31.27;14.63;;;;;4.10;100048.00;;;;4991579;28;20232;-74
2021/12/23 14:23:12;;;;;;;27.40;13.47;;;;;3.90;100045.00;;;;4987464;28;20226;-74
2021/12/23 14:26:02;;;;;;;27.40;12.57;;;;;4.00;100040.00;;;;4987210;28;20227;-75
2021/12/23 14:28:50;;;;;;;29.33;13.70;;;;;4.00;100061.00;;;;4989972;28;20773;-74
2021/12/23 14:31:41;;;;;;;29.27;13.90;;;;;3.90;100054.00;;;;4991008;28;20237;-74